»·PEaware :: UAL1399 KMFR-KPDX

UAL1399 :: KMFR-KPDX

FLIGHT INFORMATION

Flight Status: Arrived
Operator:
United Airlines
More flights by this operator :: More flights under this callsign
Pilot: David C. (16084)
Aircraft: AIRBUS A320
(A320)
More flights by this aircraft type
Origin: KMFR Rogue Valley Intl-Medford
United States
Destination: KPDX Portland Intl
United States
More flights between these airports :: More routes between these airports
Route: BRUTE7 MOURN MOXEE TMBRS2
File this flight plan on PilotEdge
Remarks:
Altitude:
(Current/Filed)
29,000ft
Speed:
(Current/Filed)
478kts
Departed: 16-Aug-18 06:58 PM
Arrived: 16-Aug-18 07:37 PM
Distance/Time
Traveled:
193nm/0:39
Distance/Time
To Go:
Arrived

Flight Plot

Page will automatically refresh every two minutes.

Flight plan parsing failed; only flown route is shown


Map Options




Map Legend


Flown Route
Filed Route
Departure Airport
Arrival Airport
Navaid (VOR, NDB)
Fix

Horizontal Profiles

Position Reports

Time Latitude Longitude Heading Altitude Ground
Speed
16-Aug-18 18:34 42.370027 -122.874009 247 1342ft 0kts
16-Aug-18 18:35 42.370027 -122.874009 247 1342ft 0kts
16-Aug-18 18:36 42.370027 -122.874009 247 1342ft 0kts
16-Aug-18 18:37 42.370027 -122.874009 247 1342ft 0kts
16-Aug-18 18:38 42.370027 -122.874009 247 1342ft 0kts
16-Aug-18 18:39 42.370027 -122.874009 247 1342ft 0kts
16-Aug-18 18:40 42.370027 -122.874009 247 1342ft 0kts
16-Aug-18 18:41 42.370027 -122.874009 247 1342ft 0kts
16-Aug-18 18:42 42.370027 -122.874009 247 1342ft 0kts
16-Aug-18 18:43 42.370027 -122.874009 247 1342ft 0kts
16-Aug-18 18:44 42.370027 -122.874009 247 1342ft 0kts
16-Aug-18 18:45 42.370027 -122.874009 247 1342ft 0kts
16-Aug-18 18:46 42.370027 -122.874009 247 1342ft 0kts
16-Aug-18 18:47 42.370027 -122.874009 247 1342ft 0kts
16-Aug-18 18:48 42.370055 -122.873917 236 1342ft 2kts
16-Aug-18 18:49 42.370579 -122.873725 151 1342ft 2kts
16-Aug-18 18:50 42.370829 -122.874086 129 1342ft 0kts
16-Aug-18 18:51 42.370829 -122.874085 129 1342ft 0kts
16-Aug-18 18:52 42.370829 -122.874085 129 1342ft 0kts
16-Aug-18 18:53 42.370829 -122.874085 129 1342ft 0kts
16-Aug-18 18:54 42.370311 -122.873111 118 1342ft 13kts
16-Aug-18 18:55 42.365694 -122.870002 159 1342ft 21kts
16-Aug-18 18:56 42.363686 -122.868758 116 1342ft 0kts
16-Aug-18 18:57 42.363686 -122.868758 116 1342ft 0kts
16-Aug-18 18:58 42.364306 -122.867672 337 1342ft 2kts
16-Aug-18 18:59 42.395545 -122.884416 334 2443ft 184kts
16-Aug-18 19:00 42.439832 -122.852503 85 5264ft 237kts
16-Aug-18 19:01 42.415848 -122.771201 115 8488ft 242kts
16-Aug-18 19:02 42.448894 -122.706089 355 11177ft 266kts
16-Aug-18 19:03 42.526261 -122.742177 333 13519ft 318kts
16-Aug-18 19:04 42.609396 -122.790092 333 16574ft 334kts
16-Aug-18 19:05 42.696563 -122.839646 332 19368ft 348kts
16-Aug-18 19:06 42.787118 -122.891121 331 21869ft 362kts
16-Aug-18 19:07 42.881629 -122.944993 331 24042ft 377kts
16-Aug-18 19:08 42.981191 -123.000742 342 25856ft 400kts
16-Aug-18 19:09 43.092758 -122.986009 9 27870ft 411kts
16-Aug-18 19:10 43.206499 -122.961325 9 29150ft 430kts
16-Aug-18 19:11 43.329988 -122.934366 8 29158ft 477kts
16-Aug-18 19:12 43.463967 -122.905085 8 29154ft 508kts
16-Aug-18 19:13 43.601697 -122.874920 9 29156ft 511kts
16-Aug-18 19:14 43.737636 -122.844952 8 29123ft 511kts
16-Aug-18 19:15 43.874915 -122.814523 9 28223ft 511kts
16-Aug-18 19:16 44.011556 -122.784095 9 27199ft 506kts
16-Aug-18 19:17 44.147487 -122.754403 6 24157ft 501kts
16-Aug-18 19:18 44.280765 -122.740399 3 21466ft 484kts
16-Aug-18 19:19 44.411082 -122.727542 3 19236ft 454kts
16-Aug-18 19:20 44.529063 -122.715932 4 18358ft 399kts
16-Aug-18 19:21 44.634191 -122.705429 4 17079ft 368kts
16-Aug-18 19:22 44.734255 -122.695295 4 15287ft 356kts
16-Aug-18 19:23 44.831122 -122.685520 4 13499ft 345kts
16-Aug-18 19:24 44.924494 -122.676119 4 11983ft 327kts
16-Aug-18 19:25 45.010605 -122.667452 3 10940ft 302kts
16-Aug-18 19:26 45.093021 -122.659047 3 9596ft 294kts
16-Aug-18 19:27 45.172053 -122.650977 4 8284ft 287kts
16-Aug-18 19:28 45.250512 -122.640366 23 6982ft 279kts
16-Aug-18 19:29 45.309938 -122.588641 33 6222ft 230kts
16-Aug-18 19:30 45.363361 -122.540602 30 5046ft 224kts
16-Aug-18 19:31 45.413620 -122.492991 34 3968ft 213kts
16-Aug-18 19:32 45.456237 -122.448842 34 3298ft 180kts
16-Aug-18 19:33 45.499034 -122.415025 2 2113ft 177kts
16-Aug-18 19:34 45.537528 -122.447650 298 1925ft 180kts
16-Aug-18 19:35 45.557977 -122.500976 300 1108ft 133kts
16-Aug-18 19:36 45.575741 -122.546752 300 424ft 130kts
16-Aug-18 19:37 45.590676 -122.585047 298 38ft 41kts
16-Aug-18 19:38 45.592098 -122.590972 268 38ft 0kts
16-Aug-18 19:39 45.591161 -122.591637 119 38ft 11kts
16-Aug-18 19:40 45.590231 -122.591579 208 38ft 0kts
16-Aug-18 19:41 45.590231 -122.591579 208 38ft 0kts

Navigation Log

Ident Type
Flight plan parsing failed, navigation log unavailable